CDT,Max TemperatureF,Mean TemperatureF,Min TemperatureF,Max Dew PointF,MeanDew PointF,Min DewpointF,Max Humidity, Mean Humidity, Min Humidity, Max Sea Level PressureIn, Mean Sea Level PressureIn, Min Sea Level PressureIn, Max VisibilityMiles, Mean VisibilityMiles, Min VisibilityMiles, Max Wind SpeedMPH, Mean Wind SpeedMPH, Max Gust SpeedMPH,PrecipitationIn, CloudCover, Events, WindDirDegrees
2012-10-1,69,60,51,55,47,37,100,65,33,29.87,29.83,29.78,10.0,10.0,7.0,16,4,22,0.00,0,,348
2012-10-2,71,58,46,52,46,45,93,67,38,29.92,29.88,29.85,10.0,10.0,10.0,9,4,,0.00,0,,280
2012-10-3,71,62,53,54,52,50,94,70,46,30.04,29.99,29.92,10.0,9.9,7.0,9,5,,0.00,1,,179
2012-10-4,77,64,51,55,52,43,82,65,44,30.21,30.14,30.05,10.0,10.0,10.0,14,8,21,0.00,5,Rain-Thunderstorm,221
2012-10-5,51,44,37,45,41,36,100,87,67,30.27,30.22,30.18,10.0,9.8,5.0,15,6,23,0.25,6,Rain-Thunderstorm,350
2012-10-6,44,40,35,37,35,32,93,81,66,30.31,30.27,30.24,10.0,10.0,7.0,8,5,,0.01,5,Rain,280
2012-10-7,53,43,33,34,31,25,93,64,35,30.32,30.25,30.18,10.0,10.0,7.0,9,4,,0.00,2,,267
2012-10-8,59,46,33,37,33,30,93,62,34,30.21,30.14,30.05,10.0,10.0,10.0,13,5,17,0.00,0,,189
2012-10-9,68,54,39,54,42,36,100,68,34,30.10,30.00,29.92,10.0,9.3,2.0,20,8,24,0.05,3,Rain,182
2012-10-10,59,48,37,45,34,27,93,61,29,30.31,30.22,30.11,10.0,9.9,5.0,9,4,,0.00,1,Rain,297
2012-10-11,59,48,37,52,42,32,94,74,61,30.20,30.16,30.10,10.0,9.9,5.0,12,7,,0.01,6,Rain-Thunderstorm,131
2012-10-12,59,55,51,54,50,45,94,87,76,30.33,30.24,30.18,10.0,9.2,7.0,12,5,,0.01,7,Rain-Thunderstorm,75
2012-10-13,71,63,55,64,60,54,100,84,69,30.12,29.98,29.79,10.0,8.8,4.0,18,13,33,0.43,7,Rain-Thunderstorm,153
2012-10-14,68,60,51,61,52,41,100,73,40,30.02,29.83,29.66,10.0,9.6,5.0,23,10,30,0.37,4,Rain-Thunderstorm,224
2012-10-15,73,58,44,50,44,39,93,61,31,30.05,29.98,29.91,10.0,10.0,10.0,8,4,,0.00,0,,167
2012-10-16,78,66,53,46,42,36,77,43,22,29.91,29.76,29.63,10.0,10.0,10.0,18,10,28,0.00,0,,183
2012-10-17,68,59,50,59,51,41,94,77,48,29.67,29.56,29.43,10.0,9.7,1.8,20,9,46,0.50,4,Rain-Thunderstorm,184
2012-10-18,59,52,44,39,31,27,66,45,29,29.72,29.68,29.65,10.0,10.0,10.0,29,12,37,0.00,3,,246
2012-10-19,51,48,46,41,38,34,81,67,50,29.84,29.75,29.64,10.0,10.0,7.0,23,13,34,0.00,8,Rain,264
2012-10-20,71,55,39,43,39,32,93,59,25,29.91,29.85,29.79,10.0,10.0,10.0,13,3,17,0.00,1,,150
2012-10-21,77,65,53,63,54,43,83,66,53,29.91,29.87,29.83,10.0,10.0,10.0,12,9,,0.00,3,,143
2012-10-22,80,72,64,64,63,63,94,73,54,29.95,29.90,29.85,10.0,9.6,7.0,16,9,23,0.00,4,Rain-Thunderstorm,164
2012-10-23,80,70,60,63,60,55,100,69,48,29.94,29.90,29.84,10.0,9.8,7.0,16,11,24,0.47,4,Rain-Thunderstorm,166
2012-10-24,80,71,62,63,60,57,88,67,51,29.95,29.90,29.83,10.0,10.0,10.0,16,10,23,0.00,1,,154
2012-10-25,73,58,42,61,50,34,100,78,61,30.22,29.94,29.79,10.0,9.6,4.0,24,13,33,0.04,5,Rain,240
2012-10-26,46,42,35,34,30,28,81,65,50,30.38,30.33,30.22,10.0,10.0,10.0,17,11,25,0.00,3,,340
2012-10-27,44,38,32,30,29,27,87,70,49,30.36,30.30,30.23,10.0,10.0,10.0,12,7,17,0.00,0,,346
2012-10-28,50,41,32,30,27,23,87,63,35,30.32,30.27,30.23,10.0,10.0,10.0,13,4,16,0.00,0,,336
2012-10-29,50,40,30,32,29,25,93,66,40,30.35,30.26,30.15,10.0,9.9,7.0,7,1,,0.00,4,,114
2012-10-30,55,42,30,32,26,19,93,53,26,30.14,30.04,29.96,10.0,10.0,10.0,6,1,,0.00,2,,323
2012-10-31,59,47,35,32,29,27,81,53,31,30.05,30.02,29.99,10.0,10.0,10.0,12,5,,0.00,0,,290